Time;durP1;ratioP1;P1;durP2;ratioP2;P2;SDS_P1;SDS_P2;PMS_P1;PMS_P2;Temp;Humidity;BMP_temperature;BMP_pressure;BME280_temperature;BME280_humidity;BME280_pressure;Samples;Min_cycle;Max_cycle;Signal;HPM_P1;HPM_P2
2022/09/20 00:00:44;;;;;;;4.88;0.60;;;10.80;99.90;;;;;;5108406;28;20039;-57
2022/09/20 00:03:11;;;;;;;3.50;0.57;;;10.80;99.90;;;;;;5096297;28;20047;-58
2022/09/20 00:05:40;;;;;;;9.52;0.88;;;10.70;99.90;;;;;;5095383;28;20403;-53
2022/09/20 00:08:09;;;;;;;7.00;0.82;;;10.70;99.90;;;;;;5104539;28;20038;-56
2022/09/20 00:10:36;;;;;;;4.80;0.40;;;10.70;99.90;;;;;;5100810;28;20039;-57
2022/09/20 00:13:02;;;;;;;3.53;1.10;;;10.60;99.90;;;;;;5094570;28;20051;-57
2022/09/20 00:15:29;;;;;;;5.15;0.90;;;10.60;99.90;;;;;;5107236;28;20044;-56
2022/09/20 00:17:54;;;;;;;8.88;0.88;;;10.50;99.90;;;;;;5098040;28;20028;-58
2022/09/20 00:20:21;;;;;;;8.40;1.58;;;10.50;99.90;;;;;;5110012;28;20176;-55
2022/09/20 00:22:48;;;;;;;5.88;1.10;;;10.40;99.90;;;;;;5100198;28;20065;-55
2022/09/20 00:25:18;;;;;;;6.78;0.85;;;10.40;99.90;;;;;;5076924;28;20047;-59
2022/09/20 00:27:44;;;;;;;14.55;1.15;;;10.40;99.90;;;;;;5087239;28;20123;-57
2022/09/20 00:30:11;;;;;;;4.30;0.65;;;10.30;99.90;;;;;;5099951;28;20035;-56
2022/09/20 00:32:37;;;;;;;6.75;0.60;;;10.20;99.90;;;;;;5097159;28;20040;-58
2022/09/20 00:35:06;;;;;;;5.60;0.40;;;10.20;99.90;;;;;;5093740;28;20586;-57
2022/09/20 00:37:33;;;;;;;8.77;0.70;;;10.10;99.90;;;;;;5095181;28;20032;-58
2022/09/20 00:39:59;;;;;;;9.25;1.08;;;10.00;99.90;;;;;;5110999;28;20036;-57
2022/09/20 00:42:30;;;;;;;3.05;0.40;;;10.10;99.90;;;;;;5092078;28;20036;-59
2022/09/20 00:45:07;;;;;;;4.68;0.40;;;10.00;99.90;;;;;;5091934;28;20040;-56
2022/09/20 00:47:35;;;;;;;7.45;1.27;;;9.90;99.90;;;;;;5092355;28;20055;-58
2022/09/20 00:50:22;;;;;;;5.78;1.08;;;9.90;99.90;;;;;;5087990;28;20041;-56
2022/09/20 00:52:53;;;;;;;4.38;0.68;;;9.80;99.90;;;;;;5108758;28;20056;-56
2022/09/20 00:55:20;;;;;;;5.03;0.63;;;9.70;99.90;;;;;;5091190;28;20052;-57
2022/09/20 00:57:46;;;;;;;20.38;1.63;;;9.60;99.90;;;;;;5109898;28;20039;-56
2022/09/20 01:00:13;;;;;;;7.15;0.82;;;9.60;99.90;;;;;;5093691;28;20378;-56
2022/09/20 01:02:47;;;;;;;7.25;0.57;;;9.50;99.90;;;;;;5103999;28;20107;-56
2022/09/20 01:05:14;;;;;;;5.80;0.40;;;9.40;99.90;;;;;;5082310;28;20048;-56
2022/09/20 01:07:42;;;;;;;13.00;1.02;;;9.40;99.90;;;;;;5078789;28;20150;-58
2022/09/20 01:10:08;;;;;;;7.95;0.93;;;9.30;99.90;;;;;;5077630;28;20152;-56
2022/09/20 01:12:35;;;;;;;5.53;1.08;;;9.30;99.90;;;;;;5079318;28;20574;-56
2022/09/20 01:15:04;;;;;;;5.32;1.05;;;9.20;99.90;;;;;;5105028;28;20039;-56
2022/09/20 01:17:33;;;;;;;11.25;0.90;;;9.20;99.90;;;;;;5089892;28;20501;-56
2022/09/20 01:20:14;;;;;;;7.00;0.70;;;9.20;99.90;;;;;;5111184;28;20031;-55
2022/09/20 01:23:07;;;;;;;3.90;0.60;;;9.10;99.90;;;;;;5110968;28;20404;-58
2022/09/20 01:26:02;;;;;;;10.10;0.73;;;9.10;99.90;;;;;;5081528;28;20035;-56
2022/09/20 01:28:29;;;;;;;4.47;0.60;;;9.10;99.90;;;;;;5074586;28;20041;-59
2022/09/20 01:31:13;;;;;;;4.97;0.73;;;9.10;99.90;;;;;;5074066;28;20497;-55
2022/09/20 01:33:43;;;;;;;4.53;0.70;;;9.00;99.90;;;;;;5073848;28;20040;-54
2022/09/20 01:36:15;;;;;;;7.40;0.98;;;9.00;99.90;;;;;;5074202;28;20040;-57
2022/09/20 01:39:11;;;;;;;5.65;1.10;;;9.00;99.90;;;;;;5093108;28;20097;-56
2022/09/20 01:41:47;;;;;;;4.32;0.95;;;9.00;99.90;;;;;;5093719;28;20032;-58
2022/09/20 01:44:29;;;;;;;4.53;0.60;;;9.00;99.90;;;;;;5093721;28;20519;-55
2022/09/20 01:47:19;;;;;;;6.82;1.00;;;9.00;99.90;;;;;;5092177;28;20036;-58
2022/09/20 01:49:54;;;;;;;8.20;1.02;;;9.00;99.90;;;;;;5093957;28;20064;-55
2022/09/20 01:52:41;;;;;;;7.47;0.82;;;9.00;99.90;;;;;;5093563;28;20050;-56
2022/09/20 01:55:44;;;;;;;8.13;0.85;;;9.00;99.90;;;;;;5093898;28;20119;-58
2022/09/20 01:58:37;;;;;;;8.23;1.15;;;8.90;99.90;;;;;;5092353;28;20044;-55
2022/09/20 02:01:37;;;;;;;8.55;1.05;;;9.00;99.90;;;;;;5089315;28;20042;-56
2022/09/20 02:04:14;;;;;;;3.28;0.70;;;9.00;99.90;;;;;;5093483;28;20054;-56
2022/09/20 02:07:09;;;;;;;2.92;0.43;;;8.90;99.90;;;;;;5102119;28;20046;-56
2022/09/20 02:09:56;;;;;;;7.90;1.40;;;9.00;99.90;;;;;;5084315;28;20036;-57
2022/09/20 02:12:51;;;;;;;9.85;0.80;;;8.90;99.90;;;;;;5094983;28;20040;-58
2022/09/20 02:15:32;;;;;;;3.65;0.85;;;8.90;99.90;;;;;;5109732;28;20110;-56
2022/09/20 02:18:16;;;;;;;10.15;0.70;;;8.90;99.90;;;;;;5102791;28;20442;-56
2022/09/20 02:21:02;;;;;;;3.95;0.95;;;8.90;99.90;;;;;;5083769;28;20404;-56
2022/09/20 02:23:54;;;;;;;8.40;0.65;;;8.90;99.90;;;;;;5099893;28;20036;-56
2022/09/20 02:26:28;;;;;;;4.32;0.47;;;8.90;99.90;;;;;;5100156;28;20055;-56
2022/09/20 02:28:59;;;;;;;10.20;1.20;;;8.90;99.90;;;;;;5079774;28;20043;-56
2022/09/20 02:31:59;;;;;;;6.55;0.65;;;8.90;99.90;;;;;;5112030;28;20054;-59
2022/09/20 02:35:16;;;;;;;3.90;0.77;;;8.90;99.90;;;;;;5087773;28;20032;-58
2022/09/20 02:37:44;;;;;;;7.18;0.65;;;9.00;99.90;;;;;;5076974;28;20039;-55
2022/09/20 02:40:33;;;;;;;5.85;1.02;;;9.00;99.90;;;;;;5099241;28;20063;-56
2022/09/20 02:43:13;;;;;;;10.20;0.82;;;8.90;99.90;;;;;;5072382;28;20562;-56
2022/09/20 02:45:53;;;;;;;5.45;0.68;;;8.90;99.90;;;;;;5088696;28;20080;-56
2022/09/20 02:48:25;;;;;;;8.98;0.90;;;8.90;99.90;;;;;;5111597;28;20124;-58
2022/09/20 02:50:58;;;;;;;6.13;1.25;;;8.90;99.90;;;;;;5095119;28;20114;-56
2022/09/20 02:54:02;;;;;;;9.73;0.80;;;8.90;99.90;;;;;;5103862;28;20079;-51
2022/09/20 02:56:51;;;;;;;4.88;0.80;;;8.90;99.90;;;;;;5090112;28;20044;-55
2022/09/20 02:59:37;;;;;;;12.18;0.82;;;8.90;99.90;;;;;;5104675;28;20035;-55
2022/09/20 03:02:21;;;;;;;11.77;1.38;;;8.90;99.90;;;;;;5109493;28;20070;-57
2022/09/20 03:05:00;;;;;;;7.15;1.30;;;8.90;99.90;;;;;;5100162;28;20051;-57
2022/09/20 03:07:53;;;;;;;11.27;1.38;;;8.90;99.90;;;;;;5080687;28;20044;-55
2022/09/20 03:10:57;;;;;;;4.50;0.77;;;8.90;99.90;;;;;;5090722;28;20071;-58
2022/09/20 03:13:59;;;;;;;5.85;1.13;;;8.90;99.90;;;;;;5086213;28;20147;-56
2022/09/20 03:16:46;;;;;;;8.25;0.75;;;8.90;99.90;;;;;;5098156;28;20504;-59
2022/09/20 03:19:47;;;;;;;6.68;1.17;;;8.80;99.90;;;;;;5094546;28;20115;-56
2022/09/20 03:22:19;;;;;;;4.07;0.60;;;8.80;99.90;;;;;;5087850;28;20040;-56
2022/09/20 03:25:05;;;;;;;3.08;1.15;;;8.80;99.90;;;;;;5087781;28;20046;-56
2022/09/20 03:28:19;;;;;;;4.93;0.75;;;8.80;99.90;;;;;;5071465;28;20040;-57
2022/09/20 03:31:22;;;;;;;7.75;0.80;;;8.80;99.90;;;;;;5085752;28;20043;-58
2022/09/20 03:34:03;;;;;;;5.38;0.55;;;8.80;99.90;;;;;;5091336;28;20090;-56
2022/09/20 03:36:43;;;;;;;4.28;0.70;;;8.80;99.90;;;;;;5092053;28;20154;-59
2022/09/20 03:39:38;;;;;;;5.65;0.40;;;8.80;99.90;;;;;;5091878;28;20036;-56
2022/09/20 03:42:16;;;;;;;3.80;0.75;;;8.80;99.90;;;;;;5074324;28;20626;-56
2022/09/20 03:45:19;;;;;;;6.53;0.80;;;8.80;99.90;;;;;;5071077;28;20041;-58
2022/09/20 03:48:19;;;;;;;8.95;0.77;;;8.80;99.90;;;;;;5071409;28;20036;-56
2022/09/20 03:50:53;;;;;;;5.68;0.65;;;8.80;99.90;;;;;;5072698;28;20044;-59
2022/09/20 03:53:51;;;;;;;2.95;0.60;;;8.70;99.90;;;;;;5071164;28;20040;-58
2022/09/20 03:56:33;;;;;;;13.20;0.60;;;8.70;99.90;;;;;;5071400;28;20044;-57
2022/09/20 03:59:32;;;;;;;7.63;1.10;;;8.80;99.90;;;;;;5105528;28;20110;-58
2022/09/20 04:02:05;;;;;;;7.45;1.13;;;8.90;99.90;;;;;;5097937;28;20108;-55
2022/09/20 04:04:57;;;;;;;4.10;0.82;;;8.90;99.90;;;;;;5099557;28;20189;-57
2022/09/20 04:07:51;;;;;;;4.20;0.60;;;8.90;99.90;;;;;;5093163;28;20504;-58
2022/09/20 04:10:29;;;;;;;8.85;1.20;;;8.90;99.90;;;;;;5094753;28;20032;-58
2022/09/20 04:13:14;;;;;;;4.68;0.68;;;8.90;99.90;;;;;;5080513;28;20080;-58
2022/09/20 04:16:16;;;;;;;6.20;0.88;;;8.80;99.90;;;;;;5086975;28;20488;-56
2022/09/20 04:18:44;;;;;;;11.18;1.13;;;8.70;99.90;;;;;;5065681;28;20045;-57
2022/09/20 04:21:22;;;;;;;6.35;1.33;;;8.70;99.90;;;;;;5106094;28;20042;-57
2022/09/20 04:24:10;;;;;;;7.03;1.02;;;8.70;99.90;;;;;;5107767;28;20558;-56
2022/09/20 04:26:44;;;;;;;13.32;2.15;;;8.80;99.90;;;;;;5082419;28;20092;-58
2022/09/20 04:29:40;;;;;;;2.30;0.52;;;8.80;99.90;;;;;;5101904;28;20043;-56
2022/09/20 04:32:08;;;;;;;4.60;0.65;;;8.70;99.90;;;;;;5090476;28;20063;-59
2022/09/20 04:37:37;;;;;;;9.00;2.15;;;8.80;99.90;;;;;;5091755;28;20055;-57
2022/09/20 04:40:24;;;;;;;4.90;1.10;;;8.70;99.90;;;;;;5091028;28;20442;-58
2022/09/20 04:43:11;;;;;;;13.77;1.92;;;8.70;99.90;;;;;;5096134;28;20273;-56
2022/09/20 04:45:57;;;;;;;6.97;1.00;;;8.70;99.90;;;;;;5099078;28;20085;-55
2022/09/20 04:48:44;;;;;;;3.92;0.98;;;8.80;99.90;;;;;;5088605;28;20122;-55
2022/09/20 04:51:57;;;;;;;10.05;1.20;;;8.80;99.90;;;;;;5088528;28;20040;-57
2022/09/20 04:54:49;;;;;;;6.45;1.55;;;8.90;99.90;;;;;;5047431;28;20098;-57
2022/09/20 04:57:53;;;;;;;7.35;1.23;;;8.90;99.90;;;;;;5086625;28;20039;-56
2022/09/20 05:00:20;;;;;;;6.22;1.48;;;8.90;99.90;;;;;;5087293;28;20082;-58
2022/09/20 05:03:05;;;;;;;5.15;1.10;;;9.00;99.90;;;;;;5096835;28;20042;-59
2022/09/20 05:06:03;;;;;;;10.98;1.75;;;9.00;99.90;;;;;;5097683;28;20054;-57
2022/09/20 05:08:34;;;;;;;7.95;1.23;;;9.10;99.90;;;;;;5094752;28;20425;-56
2022/09/20 05:11:29;;;;;;;8.77;1.40;;;9.10;99.90;;;;;;5095903;28;20036;-56
2022/09/20 05:13:57;;;;;;;9.52;1.58;;;9.10;99.90;;;;;;5090357;28;20572;-57
2022/09/20 05:16:35;;;;;;;5.70;1.25;;;9.20;99.90;;;;;;5109112;28;20099;-56
2022/09/20 05:19:42;;;;;;;9.63;1.83;;;9.20;99.90;;;;;;5076195;28;20047;-55
2022/09/20 05:22:33;;;;;;;12.90;2.15;;;9.20;99.90;;;;;;5089514;28;20047;-54
2022/09/20 05:25:20;;;;;;;5.53;1.50;;;9.20;99.90;;;;;;5101281;28;20419;-57
2022/09/20 05:28:11;;;;;;;9.53;2.07;;;9.20;99.90;;;;;;5095885;28;20074;-57
2022/09/20 05:30:48;;;;;;;3.13;1.70;;;9.30;99.90;;;;;;5080987;28;20032;-55
2022/09/20 05:33:27;;;;;;;7.82;1.73;;;9.30;99.90;;;;;;5074560;28;20044;-56
2022/09/20 05:36:31;;;;;;;6.30;1.77;;;9.40;99.90;;;;;;5094115;28;20058;-55
2022/09/20 05:39:22;;;;;;;4.78;1.38;;;9.40;99.90;;;;;;5053298;28;20493;-57
2022/09/20 05:42:01;;;;;;;6.65;1.58;;;9.50;99.90;;;;;;5070819;28;20083;-56
2022/09/20 05:44:48;;;;;;;3.95;1.30;;;9.50;99.90;;;;;;5079467;28;20581;-55
2022/09/20 05:47:31;;;;;;;10.35;1.83;;;9.60;99.90;;;;;;5075073;28;20051;-58
2022/09/20 05:50:15;;;;;;;7.40;1.73;;;9.60;99.90;;;;;;5077992;28;20047;-52
2022/09/20 05:53:18;;;;;;;4.35;1.50;;;9.70;99.90;;;;;;5070907;28;20093;-58
2022/09/20 05:56:21;;;;;;;7.20;1.52;;;9.80;99.90;;;;;;5068847;28;20051;-55
2022/09/20 05:59:14;;;;;;;4.30;1.02;;;9.90;99.90;;;;;;5080678;28;20037;-56
2022/09/20 06:02:01;;;;;;;8.15;2.15;;;9.90;99.90;;;;;;5077149;28;20039;-56
2022/09/20 06:04:57;;;;;;;4.93;1.10;;;10.00;99.90;;;;;;5081210;28;20032;-55
2022/09/20 06:08:02;;;;;;;6.22;1.85;;;10.00;99.90;;;;;;5073256;28;20097;-57
2022/09/20 06:11:14;;;;;;;2.65;1.25;;;10.10;99.90;;;;;;5085340;28;20028;-55
2022/09/20 06:14:02;;;;;;;7.65;1.10;;;10.10;99.90;;;;;;5081664;28;20036;-54
2022/09/20 06:16:46;;;;;;;5.07;0.82;;;10.20;99.90;;;;;;5074213;28;20044;-55
2022/09/20 06:19:26;;;;;;;3.30;1.00;;;10.20;99.90;;;;;;5084576;28;20047;-54
2022/09/20 06:21:54;;;;;;;6.40;1.33;;;10.20;99.90;;;;;;5075476;28;20401;-55
2022/09/20 06:24:28;;;;;;;6.03;1.33;;;10.30;99.90;;;;;;5084571;28;20558;-53
2022/09/20 06:26:56;;;;;;;10.55;0.60;;;10.40;99.90;;;;;;5085079;28;20039;-53
2022/09/20 06:29:29;;;;;;;5.75;0.88;;;10.40;99.90;;;;;;5084671;28;20044;-50
2022/09/20 06:31:55;;;;;;;15.73;1.75;;;10.50;99.90;;;;;;5089682;28;20043;-53
2022/09/20 06:34:21;;;;;;;6.77;2.33;;;10.50;99.90;;;;;;5078399;28;20036;-51
2022/09/20 06:42:34;;;;;;;3.08;0.55;;;10.70;99.90;;;;;;5079539;28;20045;-50
2022/09/20 06:45:00;;;;;;;2.97;0.68;;;10.70;99.90;;;;;;5088653;28;20040;-52
2022/09/20 06:47:26;;;;;;;5.00;0.80;;;10.80;99.90;;;;;;5100671;28;20028;-52
2022/09/20 06:49:51;;;;;;;5.00;1.23;;;10.90;99.90;;;;;;5095434;28;20036;-52
2022/09/20 06:52:19;;;;;;;10.40;1.45;;;10.90;99.90;;;;;;5101915;28;20100;-50
2022/09/20 06:54:48;;;;;;;9.45;0.52;;;11.00;99.90;;;;;;5093089;28;20029;-50
2022/09/20 06:57:18;;;;;;;13.40;1.23;;;11.00;99.90;;;;;;5072811;28;20044;-54
2022/09/20 06:59:44;;;;;;;3.25;0.88;;;11.00;99.90;;;;;;5074124;28;20032;-53
2022/09/20 07:02:10;;;;;;;5.05;1.15;;;11.10;99.90;;;;;;5080236;28;20102;-54
2022/09/20 07:04:36;;;;;;;2.78;0.50;;;11.10;99.90;;;;;;5073909;28;20473;-50
2022/09/20 07:07:04;;;;;;;11.98;1.17;;;11.20;99.90;;;;;;5087652;28;20027;-54
2022/09/20 07:09:30;;;;;;;3.85;0.50;;;11.20;99.90;;;;;;5073295;28;20032;-51
2022/09/20 07:11:58;;;;;;;2.83;0.50;;;11.30;99.90;;;;;;5069378;28;20145;-53
2022/09/20 07:14:25;;;;;;;7.07;1.15;;;11.30;99.90;;;;;;5072553;28;20600;-55
2022/09/20 07:16:51;;;;;;;1.77;0.40;;;11.30;99.90;;;;;;5073709;28;20048;-53
2022/09/20 07:19:17;;;;;;;3.67;1.00;;;11.40;99.90;;;;;;5071287;28;20382;-51
2022/09/20 07:21:42;;;;;;;4.45;1.20;;;11.40;99.90;;;;;;5066603;28;20335;-53
2022/09/20 07:24:08;;;;;;;3.30;0.70;;;11.40;99.90;;;;;;5075380;28;20047;-53
2022/09/20 07:26:33;;;;;;;6.40;0.90;;;11.40;99.90;;;;;;5074992;28;20508;-52
2022/09/20 07:29:00;;;;;;;7.72;0.77;;;11.50;99.90;;;;;;5070267;28;20667;-53
2022/09/20 07:31:27;;;;;;;4.15;0.52;;;11.50;99.90;;;;;;5068482;28;20127;-49
2022/09/20 07:33:53;;;;;;;4.45;1.00;;;11.60;99.90;;;;;;5072665;28;20059;-53
2022/09/20 07:36:18;;;;;;;4.80;0.85;;;11.60;99.90;;;;;;5070442;28;20055;-55
2022/09/20 07:38:49;;;;;;;6.75;1.05;;;11.70;99.90;;;;;;5084432;28;20088;-52
2022/09/20 07:41:15;;;;;;;5.47;0.90;;;11.70;99.90;;;;;;5073288;28;20043;-51
2022/09/20 07:43:41;;;;;;;6.90;0.90;;;11.80;99.90;;;;;;5068797;28;20040;-54
2022/09/20 07:46:06;;;;;;;4.93;0.90;;;11.80;99.90;;;;;;5065548;28;20041;-57
2022/09/20 07:48:35;;;;;;;4.20;0.82;;;11.90;99.90;;;;;;5070896;28;20044;-50
2022/09/20 07:51:07;;;;;;;3.05;1.02;;;11.90;99.90;;;;;;5074728;28;20418;-54
2022/09/20 07:53:33;;;;;;;2.28;0.73;;;11.90;99.90;;;;;;5072392;28;20032;-57
2022/09/20 07:56:00;;;;;;;;;;;12.00;99.90;;;;;;5074505;28;20055;-54
2022/09/20 07:58:27;;;;;;;2.40;1.10;;;12.10;99.90;;;;;;5067069;28;20060;-55
2022/09/20 08:00:54;;;;;;;3.80;0.57;;;12.20;99.90;;;;;;5073007;28;20572;-54
2022/09/20 08:03:20;;;;;;;4.57;1.05;;;12.40;99.90;;;;;;5069118;28;20119;-57
2022/09/20 08:05:46;;;;;;;4.53;0.77;;;12.60;99.90;;;;;;5069690;28;20040;-57
2022/09/20 08:08:12;;;;;;;4.10;0.82;;;12.80;99.90;;;;;;5075384;28;20040;-53
2022/09/20 08:10:40;;;;;;;5.75;0.95;;;12.90;99.90;;;;;;5073181;28;20657;-55
2022/09/20 08:13:06;;;;;;;7.78;1.83;;;13.10;99.90;;;;;;5072397;28;20044;-57
2022/09/20 08:15:31;;;;;;;6.13;0.80;;;13.20;99.90;;;;;;5072768;28;20489;-57
2022/09/20 08:17:57;;;;;;;2.15;0.60;;;13.40;99.90;;;;;;5072557;28;20037;-55
2022/09/20 08:20:22;;;;;;;2.10;0.70;;;13.60;99.90;;;;;;5067011;28;20044;-55
2022/09/20 08:22:48;;;;;;;5.65;0.68;;;13.80;99.90;;;;;;5067221;28;20055;-57
2022/09/20 08:25:16;;;;;;;7.50;0.88;;;13.90;99.90;;;;;;5072878;28;20050;-55
2022/09/20 08:27:42;;;;;;;3.20;0.45;;;14.00;99.90;;;;;;5069346;28;20463;-54
2022/09/20 08:30:08;;;;;;;3.85;0.40;;;14.20;99.90;;;;;;5069475;28;20123;-55
2022/09/20 08:32:36;;;;;;;5.35;0.57;;;14.30;99.90;;;;;;5066574;28;20244;-53
2022/09/20 08:35:02;;;;;;;3.72;0.50;;;14.40;99.90;;;;;;5069455;28;20101;-55
2022/09/20 08:37:28;;;;;;;4.20;0.47;;;14.60;99.90;;;;;;5065054;28;20123;-55
2022/09/20 08:39:53;;;;;;;4.60;0.40;;;14.70;99.90;;;;;;5066973;28;20070;-54
2022/09/20 08:42:28;;;;;;;4.60;1.30;;;14.80;99.90;;;;;;5065659;28;20368;-54
2022/09/20 08:44:59;;;;;;;3.72;0.30;;;14.90;99.90;;;;;;5076986;28;20285;-55
2022/09/20 08:47:29;;;;;;;4.00;0.68;;;15.00;99.90;;;;;;5078939;28;20044;-55
2022/09/20 08:49:58;;;;;;;4.30;0.38;;;15.00;99.90;;;;;;5077907;28;20047;-56
2022/09/20 08:52:32;;;;;;;5.28;0.43;;;15.00;99.90;;;;;;5082826;28;20036;-56
2022/09/20 08:54:59;;;;;;;3.05;0.30;;;15.10;99.90;;;;;;5071427;28;20208;-56
2022/09/20 08:57:32;;;;;;;5.15;0.30;;;15.10;99.90;;;;;;5066289;28;20044;-56
2022/09/20 09:00:00;;;;;;;7.15;0.30;;;15.20;99.90;;;;;;5073403;28;20039;-52
2022/09/20 09:02:30;;;;;;;3.65;0.45;;;15.10;99.90;;;;;;5067618;28;20045;-55
2022/09/20 09:04:55;;;;;;;4.68;0.35;;;15.10;99.90;;;;;;5067747;28;20040;-57
2022/09/20 09:07:23;;;;;;;2.70;0.45;;;15.20;99.90;;;;;;5068345;28;20086;-54
2022/09/20 09:09:52;;;;;;;2.70;0.50;;;15.20;99.90;;;;;;5065747;28;20037;-55
2022/09/20 09:12:25;;;;;;;2.92;0.32;;;15.20;99.90;;;;;;5064945;28;20216;-55
2022/09/20 09:14:56;;;;;;;4.82;0.57;;;15.20;99.90;;;;;;5069074;28;20424;-52
2022/09/20 09:17:24;;;;;;;3.10;0.25;;;15.30;99.90;;;;;;5063799;28;20049;-54
2022/09/20 09:19:51;;;;;;;2.20;0.20;;;15.30;99.90;;;;;;5067045;28;20040;-55
2022/09/20 09:22:28;;;;;;;1.13;0.20;;;15.30;99.90;;;;;;5068607;28;20390;-55
2022/09/20 09:25:21;;;;;;;4.45;0.30;;;15.30;99.90;;;;;;5073499;28;20040;-56
2022/09/20 09:27:51;;;;;;;2.55;0.20;;;15.40;99.90;;;;;;5074579;28;20032;-55
2022/09/20 09:30:30;;;;;;;5.40;0.60;;;15.50;99.90;;;;;;5069175;28;20044;-55
2022/09/20 09:33:32;;;;;;;1.00;0.20;;;15.50;99.90;;;;;;5067569;28;20752;-57
2022/09/20 09:36:22;;;;;;;1.23;0.28;;;15.60;99.90;;;;;;5068234;28;20040;-54
2022/09/20 09:38:48;;;;;;;3.80;0.30;;;15.70;99.90;;;;;;5074306;28;20131;-56
2022/09/20 09:41:19;;;;;;;2.65;0.20;;;15.70;99.90;;;;;;5076939;28;20067;-55
2022/09/20 09:44:17;;;;;;;3.53;0.30;;;15.90;99.90;;;;;;5071194;28;20098;-57
2022/09/20 09:46:43;;;;;;;;;;;15.90;99.90;;;;;;5081967;28;20051;-55
2022/09/20 09:49:21;;;;;;;2.15;0.38;;;16.00;99.90;;;;;;5080385;28;19924;-57
2022/09/20 09:52:15;;;;;;;3.88;0.30;;;16.20;99.90;;;;;;5093547;28;20115;-52
2022/09/20 09:54:49;;;;;;;2.60;0.20;;;16.20;99.90;;;;;;5074126;28;20048;-56
2022/09/20 09:57:41;;;;;;;2.00;0.30;;;16.30;99.90;;;;;;5087774;28;20058;-58
2022/09/20 10:00:12;;;;;;;1.48;0.30;;;16.50;99.90;;;;;;5092357;28;20043;-56
2022/09/20 10:03:15;;;;;;;2.50;0.15;;;16.60;99.90;;;;;;5089077;28;20044;-55
2022/09/20 10:06:06;;;;;;;2.70;0.20;;;16.70;99.50;;;;;;5090723;28;20131;-57
2022/09/20 10:08:50;;;;;;;6.55;0.70;;;16.80;99.30;;;;;;5076203;28;20083;-57
2022/09/20 10:11:28;;;;;;;2.28;0.55;;;16.90;99.30;;;;;;5083066;28;20036;-57
2022/09/20 10:14:06;;;;;;;1.85;0.35;;;16.90;99.40;;;;;;5072132;28;20047;-55
2022/09/20 10:16:50;;;;;;;1.80;0.35;;;16.90;99.20;;;;;;5080559;28;20130;-56
2022/09/20 10:19:49;;;;;;;2.05;0.30;;;17.00;99.40;;;;;;5069664;28;20041;-57
2022/09/20 10:22:50;;;;;;;1.58;0.40;;;17.00;99.00;;;;;;5064139;28;20051;-55
2022/09/20 10:25:26;;;;;;;3.42;0.10;;;17.20;99.10;;;;;;5071501;28;20822;-58
2022/09/20 10:28:11;;;;;;;2.47;0.30;;;17.40;98.40;;;;;;5073859;28;20036;-59
2022/09/20 10:31:00;;;;;;;2.45;0.20;;;17.60;97.70;;;;;;5067909;28;20369;-57
2022/09/20 10:33:41;;;;;;;2.20;0.38;;;17.70;97.60;;;;;;5069314;28;20052;-56
2022/09/20 10:36:35;;;;;;;1.52;0.10;;;17.80;97.20;;;;;;5068318;28;20040;-55
2022/09/20 10:39:32;;;;;;;6.35;0.40;;;17.90;97.00;;;;;;5071665;28;20051;-56
2022/09/20 10:45:42;;;;;;;3.28;0.55;;;17.90;95.90;;;;;;5066889;28;20451;-55
2022/09/20 10:48:51;;;;;;;1.40;0.20;;;17.90;95.80;;;;;;5067051;28;20095;-58
2022/09/20 10:51:43;;;;;;;3.42;0.32;;;17.90;95.90;;;;;;5060207;28;20037;-57
2022/09/20 10:54:40;;;;;;;2.90;0.43;;;17.90;96.90;;;;;;5062757;28;20139;-57
2022/09/20 10:57:49;;;;;;;2.22;0.22;;;18.00;97.30;;;;;;5061498;28;20033;-56
2022/09/20 11:00:20;;;;;;;2.83;0.20;;;18.20;96.00;;;;;;5063817;28;20128;-57
2022/09/20 11:03:03;;;;;;;3.00;0.22;;;18.20;96.50;;;;;;5060483;28;20862;-56
2022/09/20 11:05:56;;;;;;;1.67;0.15;;;18.10;95.90;;;;;;5058593;28;20391;-56
2022/09/20 11:08:27;;;;;;;2.00;0.10;;;18.10;96.10;;;;;;5050515;28;20097;-55
2022/09/20 11:11:02;;;;;;;2.90;0.17;;;18.20;96.10;;;;;;5061268;28;20064;-57
2022/09/20 11:13:40;;;;;;;2.42;0.20;;;18.30;96.10;;;;;;5060842;28;20588;-56
2022/09/20 11:16:31;;;;;;;2.05;0.40;;;18.30;96.50;;;;;;5063299;28;20041;-57
2022/09/20 11:19:01;;;;;;;2.67;0.20;;;18.10;96.10;;;;;;5060253;28;20052;-58
2022/09/20 11:21:36;;;;;;;2.78;0.20;;;17.90;96.50;;;;;;5062528;28;20841;-55
2022/09/20 11:24:11;;;;;;;1.70;0.20;;;17.70;96.30;;;;;;5061174;28;20048;-55
2022/09/20 11:26:50;;;;;;;3.13;0.17;;;17.50;96.30;;;;;;5080208;28;20051;-55
2022/09/20 11:29:50;;;;;;;2.42;0.30;;;17.40;96.80;;;;;;5075437;28;20036;-57
2022/09/20 11:32:29;;;;;;;3.78;0.40;;;17.20;96.40;;;;;;5075011;28;20488;-55
2022/09/20 11:35:13;;;;;;;1.75;0.20;;;17.00;96.50;;;;;;5073434;28;20090;-57
2022/09/20 11:37:47;;;;;;;2.90;0.30;;;16.80;96.40;;;;;;5079885;28;20079;-57
2022/09/20 11:40:36;;;;;;;3.17;0.20;;;16.70;96.10;;;;;;5073542;28;20076;-56
2022/09/20 11:43:05;;;;;;;1.38;0.38;;;16.50;96.20;;;;;;5079083;28;20032;-56
2022/09/20 11:45:32;;;;;;;1.20;0.10;;;16.40;96.30;;;;;;5076047;28;20051;-56
2022/09/20 11:48:24;;;;;;;1.35;0.10;;;16.50;96.60;;;;;;5075645;28;20051;-58
2022/09/20 11:51:22;;;;;;;1.45;0.10;;;16.60;95.40;;;;;;5071497;28;20040;-56
2022/09/20 11:54:14;;;;;;;1.42;0.38;;;16.70;96.00;;;;;;5083203;28;20082;-57
2022/09/20 11:56:48;;;;;;;1.20;0.35;;;16.70;95.30;;;;;;5089517;28;20089;-57
2022/09/20 11:59:35;;;;;;;0.93;0.10;;;16.70;95.90;;;;;;5084313;28;20405;-57
2022/09/20 12:02:10;;;;;;;0.40;0.10;;;16.80;96.20;;;;;;5072531;28;20040;-56
2022/09/20 12:04:36;;;;;;;0.98;0.10;;;16.90;96.50;;;;;;5069145;28;20039;-57
2022/09/20 12:07:07;;;;;;;1.95;0.10;;;17.10;96.50;;;;;;5073875;28;20532;-58
2022/09/20 12:09:37;;;;;;;2.08;0.20;;;17.20;95.40;;;;;;5073475;28;20072;-57
2022/09/20 12:12:40;;;;;;;2.92;0.20;;;17.20;95.30;;;;;;5093288;27;20304;-60
2022/09/20 12:15:22;;;;;;;3.22;0.10;;;17.20;95.10;;;;;;5073349;28;20089;-55
2022/09/20 12:17:48;;;;;;;1.35;0.30;;;17.10;95.60;;;;;;5078059;28;20139;-56
2022/09/20 12:20:48;;;;;;;3.58;0.20;;;17.10;95.80;;;;;;5081345;28;20114;-56
2022/09/20 12:23:41;;;;;;;1.38;0.15;;;17.10;95.60;;;;;;5068163;28;20119;-55
2022/09/20 12:26:19;;;;;;;1.35;0.20;;;17.10;96.00;;;;;;5064485;28;20052;-58
2022/09/20 12:28:49;;;;;;;5.22;0.20;;;17.00;95.70;;;;;;5071026;28;20564;-52
2022/09/20 12:31:20;;;;;;;1.17;0.13;;;17.00;96.10;;;;;;5069632;28;20086;-55
2022/09/20 12:34:02;;;;;;;2.40;0.20;;;17.00;96.00;;;;;;5069607;28;20051;-57
2022/09/20 12:36:33;;;;;;;2.55;0.10;;;17.00;95.40;;;;;;5064378;28;20564;-55
2022/09/20 12:39:04;;;;;;;5.20;0.30;;;17.00;95.90;;;;;;5070222;28;20059;-56
2022/09/20 12:42:20;;;;;;;0.85;0.10;;;17.00;95.90;;;;;;5053621;28;20041;-55
2022/09/20 12:44:48;;;;;;;1.35;0.10;;;17.00;95.70;;;;;;5051503;28;20094;-54
2022/09/20 12:47:24;;;;;;;2.03;0.30;;;17.00;96.00;;;;;;5069681;28;20459;-58
2022/09/20 12:53:02;;;;;;;1.88;0.30;;;17.00;96.10;;;;;;5064362;28;20095;-57
2022/09/20 12:56:02;;;;;;;2.60;0.70;;;17.10;96.30;;;;;;5056003;28;20032;-58
2022/09/20 12:58:37;;;;;;;2.65;0.28;;;17.20;96.50;;;;;;5070666;28;20048;-55
2022/09/20 13:01:02;;;;;;;3.67;0.20;;;17.50;97.30;;;;;;5078520;28;20094;-57
2022/09/20 13:03:35;;;;;;;5.72;0.57;;;17.70;96.50;;;;;;5077539;28;20063;-58
2022/09/20 13:06:04;;;;;;;5.07;0.40;;;17.80;95.70;;;;;;5077613;28;20076;-55
2022/09/20 13:08:39;;;;;;;4.00;0.47;;;17.90;95.50;;;;;;5076692;28;20099;-56
2022/09/20 13:11:27;;;;;;;1.08;0.10;;;17.90;95.60;;;;;;5078281;28;20036;-56
2022/09/20 13:14:05;;;;;;;4.85;0.20;;;18.00;95.60;;;;;;5082685;28;20114;-58
2022/09/20 13:16:36;;;;;;;3.40;0.80;;;18.00;95.60;;;;;;5079999;28;20131;-56
2022/09/20 13:19:09;;;;;;;1.73;0.22;;;18.10;95.60;;;;;;5079872;28;20063;-56
2022/09/20 13:21:40;;;;;;;2.88;0.30;;;18.00;95.40;;;;;;5081075;28;20043;-58
2022/09/20 13:24:11;;;;;;;1.60;0.10;;;17.90;94.90;;;;;;5087725;28;20520;-57
2022/09/20 13:26:44;;;;;;;3.05;0.47;;;17.90;94.80;;;;;;5081587;28;20039;-57
2022/09/20 13:29:30;;;;;;;2.30;0.38;;;17.70;94.60;;;;;;5088342;28;20040;-54
2022/09/20 13:32:13;;;;;;;3.15;0.40;;;17.60;94.20;;;;;;5087565;28;20051;-54
2022/09/20 13:34:38;;;;;;;2.70;0.20;;;17.40;94.20;;;;;;5089642;28;20063;-57
2022/09/20 13:37:04;;;;;;;1.45;0.28;;;17.20;94.40;;;;;;5086094;28;20027;-56
2022/09/20 13:39:35;;;;;;;3.17;0.38;;;17.00;94.00;;;;;;5083355;28;20062;-55
2022/09/20 13:42:15;;;;;;;2.83;0.20;;;16.90;93.90;;;;;;5091220;28;20040;-55
2022/09/20 13:44:42;;;;;;;6.10;0.98;;;16.80;93.80;;;;;;5088140;28;20398;-56
2022/09/20 13:47:28;;;;;;;7.05;0.40;;;16.70;94.00;;;;;;5090849;28;20055;-57
2022/09/20 13:50:14;;;;;;;3.28;0.20;;;16.60;93.40;;;;;;5088629;28;20064;-57
2022/09/20 13:52:46;;;;;;;1.65;0.20;;;16.50;93.80;;;;;;5082431;28;20047;-58
2022/09/20 13:55:30;;;;;;;2.10;0.30;;;16.50;94.30;;;;;;5087790;28;20115;-55
2022/09/20 13:58:01;;;;;;;8.38;0.55;;;16.50;94.20;;;;;;5086384;28;20043;-57
2022/09/20 14:00:28;;;;;;;5.25;0.60;;;16.50;94.60;;;;;;5086011;28;20067;-55
2022/09/20 14:02:54;;;;;;;2.55;0.57;;;16.50;95.00;;;;;;5083157;28;20442;-57
2022/09/20 14:05:25;;;;;;;2.60;0.52;;;16.50;94.50;;;;;;5086892;28;20039;-55